Time;durP1;ratioP1;P1;durP2;ratioP2;P2;SDS_P1;SDS_P2;PMS_P1;PMS_P2;Temp;Humidity;BMP_temperature;BMP_pressure;BME280_temperature;BME280_humidity;BME280_pressure;Samples;Min_cycle;Max_cycle;Signal;HPM_P1;HPM_P2
2023/08/16 00:00:59;;;;;;;7.13;6.03;;;;;;;25.16;50.41;101199.09;4992490;28;20886;-70
2023/08/16 00:03:25;;;;;;;7.32;5.72;;;;;;;25.17;50.59;101198.03;4992425;28;20386;-70
2023/08/16 00:05:52;;;;;;;7.15;6.45;;;;;;;25.11;51.13;101193.63;4992530;28;20786;-70
2023/08/16 00:08:18;;;;;;;9.05;6.50;;;;;;;25.15;51.06;101191.22;4992460;28;20407;-69
2023/08/16 00:10:43;;;;;;;7.87;6.27;;;;;;;25.24;50.71;101194.28;4992398;28;20883;-69
2023/08/16 00:13:08;;;;;;;7.68;6.47;;;;;;;25.30;50.84;101193.28;4992099;28;20382;-70
2023/08/16 00:15:34;;;;;;;7.87;6.23;;;;;;;25.36;50.67;101198.50;4992455;28;20855;-70
2023/08/16 00:18:00;;;;;;;8.83;6.10;;;;;;;25.40;50.76;101201.50;4992360;28;20378;-69
2023/08/16 00:20:27;;;;;;;10.38;6.18;;;;;;;25.43;50.51;101202.91;4992486;28;20402;-70
2023/08/16 00:22:53;;;;;;;8.13;6.50;;;;;;;25.40;50.68;101206.94;4992370;28;20492;-70
2023/08/16 00:25:19;;;;;;;9.85;7.00;;;;;;;25.32;50.97;101199.28;4992586;28;20517;-69
2023/08/16 00:27:44;;;;;;;8.23;6.13;;;;;;;25.36;51.31;101205.84;4991994;28;20480;-70
2023/08/16 00:30:11;;;;;;;7.87;6.83;;;;;;;25.43;51.32;101205.63;4993652;28;20385;-70
2023/08/16 00:32:37;;;;;;;9.43;6.40;;;;;;;25.46;51.31;101202.38;4993133;28;20406;-70
2023/08/16 00:35:03;;;;;;;9.52;6.75;;;;;;;25.49;51.32;101210.00;4992550;28;20396;-70
2023/08/16 00:37:29;;;;;;;8.50;6.63;;;;;;;25.47;51.35;101204.03;4992171;28;20439;-70
2023/08/16 00:39:54;;;;;;;8.40;6.60;;;;;;;25.48;51.50;101216.50;4991783;28;20405;-70
2023/08/16 00:42:19;;;;;;;9.57;6.53;;;;;;;25.44;51.66;101213.50;4991716;28;20404;-70
2023/08/16 00:44:45;;;;;;;8.13;6.70;;;;;;;25.43;51.72;101206.44;4991760;28;20377;-70
2023/08/16 00:47:12;;;;;;;7.28;6.20;;;;;;;25.46;51.64;101205.94;4991776;28;20401;-70
2023/08/16 00:49:39;;;;;;;7.22;6.47;;;;;;;25.44;51.91;101216.19;4991784;28;20378;-70
2023/08/16 00:52:06;;;;;;;7.33;6.57;;;;;;;25.35;52.28;101206.91;4990722;28;20393;-70
2023/08/16 00:54:31;;;;;;;8.77;7.07;;;;;;;25.24;52.49;101208.69;4991626;28;20373;-70
2023/08/16 00:56:58;;;;;;;10.55;7.20;;;;;;;25.25;52.62;101204.09;4991231;28;20933;-70
2023/08/16 00:59:26;;;;;;;9.05;6.80;;;;;;;25.31;52.29;101216.63;4991402;28;20402;-69
2023/08/16 01:01:52;;;;;;;8.55;7.03;;;;;;;25.35;52.50;101220.47;4991310;28;20386;-70
2023/08/16 01:04:19;;;;;;;8.00;7.13;;;;;;;25.32;52.67;101216.38;4991320;28;20385;-70
2023/08/16 01:06:44;;;;;;;8.82;7.43;;;;;;;25.31;52.66;101213.91;5000963;28;20380;-70
2023/08/16 01:09:10;;;;;;;8.43;7.33;;;;;;;25.25;52.82;101213.06;5010898;28;20461;-70
2023/08/16 01:11:45;;;;;;;9.48;7.25;;;;;;;25.26;53.12;101208.44;5010517;28;20442;-69
2023/08/16 01:14:19;;;;;;;7.82;7.03;;;;;;;25.27;52.94;101210.09;5010979;28;20376;-70
2023/08/16 01:16:47;;;;;;;9.02;7.10;;;;;;;25.25;53.00;101204.91;4994949;28;20448;-69
2023/08/16 01:19:24;;;;;;;9.23;6.75;;;;;;;25.21;53.25;101211.06;4990390;28;20898;-69
2023/08/16 01:22:18;;;;;;;8.40;7.13;;;;;;;25.07;53.57;101200.63;4994748;28;20400;-70
2023/08/16 01:25:13;;;;;;;8.40;6.43;;;;;;;25.11;53.92;101206.38;5008708;28;20424;-69
2023/08/16 01:27:38;;;;;;;7.93;6.67;;;;;;;25.22;53.72;101208.09;5009175;28;20893;-70
2023/08/16 01:30:08;;;;;;;8.27;7.05;;;;;;;25.31;53.30;101208.50;5010665;28;20384;-70
2023/08/16 01:32:34;;;;;;;8.32;7.05;;;;;;;25.25;53.47;101212.25;5010068;28;20400;-69
2023/08/16 01:34:59;;;;;;;10.45;7.15;;;;;;;25.29;53.15;101218.78;5009562;28;20400;-71
2023/08/16 01:37:25;;;;;;;10.03;7.90;;;;;;;25.21;53.48;101225.47;5010440;28;20795;-70
2023/08/16 01:39:52;;;;;;;10.13;7.43;;;;;;;25.07;53.65;101216.91;5010190;28;20430;-70
2023/08/16 01:42:17;;;;;;;9.10;7.03;;;;;;;24.99;53.93;101220.06;5010384;28;20699;-70
2023/08/16 01:44:48;;;;;;;8.05;7.25;;;;;;;24.87;54.00;101225.63;5010520;28;20387;-69
2023/08/16 01:47:15;;;;;;;8.02;6.45;;;;;;;24.88;53.82;101226.44;5010354;28;20412;-70
2023/08/16 01:49:45;;;;;;;10.02;6.53;;;;;;;24.83;53.87;101224.50;5010345;28;20461;-69
2023/08/16 01:52:11;;;;;;;8.68;6.53;;;;;;;24.84;53.42;101228.03;5010422;28;21201;-70
2023/08/16 01:54:36;;;;;;;7.50;6.22;;;;;;;24.75;53.29;101227.66;5010284;28;20402;-69
2023/08/16 01:57:02;;;;;;;8.37;6.47;;;;;;;24.74;53.10;101217.88;5010437;28;20869;-70
2023/08/16 01:59:27;;;;;;;7.13;6.17;;;;;;;24.60;53.29;101220.16;5010158;28;20411;-70
2023/08/16 02:01:53;;;;;;;8.73;6.90;;;;;;;24.58;53.25;101225.81;5010195;28;20395;-69
2023/08/16 02:04:18;;;;;;;7.47;6.05;;;;;;;24.67;53.23;101220.78;5010200;28;20465;-70
2023/08/16 02:06:44;;;;;;;7.53;6.23;;;;;;;24.72;52.99;101212.72;5010051;28;20698;-70
2023/08/16 02:09:09;;;;;;;7.10;6.23;;;;;;;24.62;53.06;101215.28;5010203;28;20472;-70
2023/08/16 02:11:35;;;;;;;7.78;6.40;;;;;;;24.56;53.22;101216.28;5010089;28;20364;-70
2023/08/16 02:14:00;;;;;;;7.50;6.57;;;;;;;24.59;53.21;101215.78;5010034;28;20459;-70
2023/08/16 02:16:26;;;;;;;8.10;6.30;;;;;;;24.68;52.79;101216.19;5010006;28;20391;-70
2023/08/16 02:18:52;;;;;;;7.05;5.88;;;;;;;24.76;52.56;101218.47;5010385;28;20388;-70
2023/08/16 02:21:17;;;;;;;6.60;5.97;;;;;;;24.76;52.35;101218.47;5010393;28;20435;-70
2023/08/16 02:23:43;;;;;;;10.30;6.57;;;;;;;24.79;52.40;101220.66;5010305;28;20416;-70
2023/08/16 02:26:09;;;;;;;7.53;6.70;;;;;;;24.78;52.33;101227.16;5010679;28;20387;-70
2023/08/16 02:28:34;;;;;;;8.90;6.70;;;;;;;24.80;52.29;101220.41;5010482;28;20380;-70
2023/08/16 02:31:05;;;;;;;9.10;6.10;;;;;;;24.83;52.02;101221.81;5013110;28;20392;-70
2023/08/16 02:33:31;;;;;;;8.13;6.95;;;;;;;24.83;52.12;101224.50;5014435;28;20379;-70
2023/08/16 02:35:57;;;;;;;8.30;6.43;;;;;;;24.84;52.20;101226.13;5014303;28;20706;-70
2023/08/16 02:38:23;;;;;;;9.70;6.63;;;;;;;24.81;52.14;101229.34;5013650;28;20898;-70
2023/08/16 02:40:48;;;;;;;9.43;6.40;;;;;;;24.73;52.44;101221.66;5014040;28;20388;-70
2023/08/16 02:43:13;;;;;;;7.80;6.57;;;;;;;24.71;52.67;101221.09;5013796;28;20952;-70
2023/08/16 02:45:39;;;;;;;10.03;6.67;;;;;;;24.70;52.87;101231.09;5013610;28;20372;-70
2023/08/16 02:48:05;;;;;;;9.88;6.55;;;;;;;24.73;52.65;101227.09;5013729;28;20511;-70
2023/08/16 02:50:30;;;;;;;8.03;6.47;;;;;;;24.73;52.64;101224.38;5013111;28;20390;-70
2023/08/16 02:52:56;;;;;;;9.05;6.40;;;;;;;24.79;52.54;101226.91;5013190;28;20376;-70
2023/08/16 02:55:21;;;;;;;7.73;6.27;;;;;;;24.75;52.43;101220.34;5013369;28;20368;-70
2023/08/16 02:57:47;;;;;;;14.23;6.50;;;;;;;24.77;52.48;101229.03;5011842;28;20420;-70
2023/08/16 03:00:13;;;;;;;8.10;6.22;;;;;;;24.84;52.44;101241.59;5012331;28;20408;-70
2023/08/16 03:02:38;;;;;;;7.90;6.25;;;;;;;24.86;52.30;101236.72;5012417;28;20478;-71
2023/08/16 03:05:04;;;;;;;9.43;6.30;;;;;;;24.85;52.39;101230.50;5012350;28;20841;-70
2023/08/16 03:07:30;;;;;;;8.07;6.38;;;;;;;24.82;52.49;101228.28;5013308;28;20384;-70
2023/08/16 03:09:55;;;;;;;9.17;6.40;;;;;;;24.84;52.30;101225.31;5013514;28;20368;-70
2023/08/16 03:12:20;;;;;;;8.40;6.50;;;;;;;24.87;52.33;101241.09;5013469;28;20395;-70
2023/08/16 03:14:46;;;;;;;8.10;6.32;;;;;;;24.79;52.51;101240.47;5013505;28;20383;-70
2023/08/16 03:17:11;;;;;;;8.67;6.33;;;;;;;24.65;52.57;101250.03;5013467;28;20388;-71
2023/08/16 03:19:37;;;;;;;9.87;6.33;;;;;;;24.56;52.71;101235.25;5013387;28;20399;-71
2023/08/16 03:22:02;;;;;;;13.23;7.18;;;;;;;24.57;52.65;101236.91;5013150;28;20392;-70
2023/08/16 03:24:28;;;;;;;10.53;6.40;;;;;;;24.56;52.60;101237.97;5013895;28;20379;-71
2023/08/16 03:26:53;;;;;;;9.27;6.40;;;;;;;24.50;52.81;101239.75;5014031;28;20857;-71
2023/08/16 03:29:19;;;;;;;8.63;6.28;;;;;;;24.51;52.70;101243.31;5013963;28;20372;-70
2023/08/16 03:31:46;;;;;;;7.27;6.50;;;;;;;24.56;52.55;101241.53;5013907;28;20505;-70
2023/08/16 03:34:11;;;;;;;7.78;6.43;;;;;;;24.66;52.36;101243.53;5013695;28;20886;-70
2023/08/16 03:36:37;;;;;;;7.70;6.43;;;;;;;24.71;52.17;101251.75;5013586;28;20372;-70
2023/08/16 03:39:05;;;;;;;8.80;7.13;;;;;;;24.73;51.86;101249.59;5014562;28;20372;-70
2023/08/16 03:41:32;;;;;;;10.52;6.55;;;;;;;24.76;51.82;101248.28;5020416;28;20820;-70
2023/08/16 03:43:58;;;;;;;9.27;6.68;;;;;;;24.77;51.75;101244.47;5020271;28;20403;-70
2023/08/16 03:46:23;;;;;;;9.15;7.45;;;;;;;24.79;52.00;101251.31;5018012;28;20529;-70
2023/08/16 03:48:49;;;;;;;9.43;6.67;;;;;;;24.72;52.17;101250.69;5013355;28;20854;-70
2023/08/16 03:51:14;;;;;;;10.73;6.50;;;;;;;24.61;52.31;101249.72;5012689;28;20372;-71
2023/08/16 03:53:40;;;;;;;8.00;6.57;;;;;;;24.54;52.39;101253.66;5012407;28;20372;-71
2023/08/16 03:56:05;;;;;;;10.70;6.67;;;;;;;24.48;52.70;101247.34;5010935;28;20486;-71
2023/08/16 03:58:30;;;;;;;7.73;6.30;;;;;;;24.45;52.67;101238.88;5012542;28;20853;-70
2023/08/16 04:00:56;;;;;;;8.88;6.72;;;;;;;24.37;52.65;101250.97;5011060;28;20974;-70
2023/08/16 04:03:21;;;;;;;9.73;6.40;;;;;;;24.29;52.75;101245.97;5012405;28;20376;-71
2023/08/16 04:05:47;;;;;;;9.53;6.40;;;;;;;24.32;52.63;101249.00;5011012;28;20490;-71
2023/08/16 04:08:13;;;;;;;9.07;6.07;;;;;;;24.38;52.48;101245.31;5011978;28;20450;-71
2023/08/16 04:10:38;;;;;;;9.30;6.75;;;;;;;24.43;52.56;101261.66;5011289;28;20395;-71
2023/08/16 04:13:04;;;;;;;9.23;6.80;;;;;;;24.48;52.34;101254.66;5011304;28;20398;-71
2023/08/16 04:15:30;;;;;;;8.95;6.30;;;;;;;24.54;52.15;101259.09;5012025;28;20799;-71
2023/08/16 04:17:55;;;;;;;8.05;6.28;;;;;;;24.56;51.98;101254.22;5012140;28;20886;-71
2023/08/16 04:20:23;;;;;;;9.40;6.30;;;;;;;24.64;51.83;101264.66;5011827;28;20819;-71
2023/08/16 04:22:50;;;;;;;14.65;6.43;;;;;;;24.71;51.32;101273.44;5012132;28;20380;-71
2023/08/16 04:25:16;;;;;;;9.50;6.13;;;;;;;24.72;51.06;101261.53;5012210;28;20879;-71
2023/08/16 04:27:42;;;;;;;10.18;6.78;;;;;;;24.80;51.05;101265.69;5012106;28;20385;-71
2023/08/16 04:30:09;;;;;;;8.80;6.20;;;;;;;24.81;50.83;101264.59;5012546;28;20369;-71
2023/08/16 04:32:35;;;;;;;8.25;5.82;;;;;;;24.80;50.77;101281.94;5011798;28;20547;-71
2023/08/16 04:35:00;;;;;;;10.75;5.72;;;;;;;24.79;50.81;101283.84;5010855;28;20388;-71
2023/08/16 04:37:26;;;;;;;9.57;5.97;;;;;;;24.75;50.24;101281.88;5003300;28;20405;-71
2023/08/16 04:39:51;;;;;;;10.27;6.10;;;;;;;24.67;50.09;101277.72;4996440;28;20749;-71
2023/08/16 04:42:18;;;;;;;9.55;6.65;;;;;;;24.65;51.05;101287.16;4999568;28;20396;-71
2023/08/16 04:44:44;;;;;;;11.50;7.50;;;;;;;24.65;51.64;101298.00;4997404;28;20396;-71
2023/08/16 04:47:10;;;;;;;10.37;7.30;;;;;;;24.71;51.80;101297.00;4992132;28;20448;-71
2023/08/16 04:49:35;;;;;;;9.70;6.75;;;;;;;24.76;51.53;101288.97;4989899;28;21051;-72
2023/08/16 04:52:01;;;;;;;9.57;7.07;;;;;;;24.68;51.76;101292.91;4987897;28;20378;-71
2023/08/16 04:54:26;;;;;;;8.80;6.80;;;;;;;24.60;51.73;101286.03;4988715;28;20382;-71
2023/08/16 04:56:52;;;;;;;11.32;6.93;;;;;;;24.56;52.23;101294.88;4988761;28;20456;-71
2023/08/16 04:59:18;;;;;;;11.57;8.77;;;;;;;24.54;52.49;101297.03;4991155;28;20443;-71
2023/08/16 05:01:44;;;;;;;11.80;7.63;;;;;;;24.56;52.50;101297.59;4991578;28;20391;-71
2023/08/16 05:04:10;;;;;;;11.68;7.57;;;;;;;24.66;52.40;101295.03;4991400;28;20742;-70
2023/08/16 05:06:36;;;;;;;11.43;7.60;;;;;;;24.70;52.33;101296.16;4991586;28;20881;-70
2023/08/16 05:09:02;;;;;;;10.55;7.38;;;;;;;24.64;52.57;101302.59;4991620;28;20398;-71
2023/08/16 05:11:29;;;;;;;10.43;7.10;;;;;;;24.59;52.57;101291.69;4991691;28;20386;-71
2023/08/16 05:13:54;;;;;;;11.57;7.97;;;;;;;24.59;52.60;101294.41;4991438;28;20374;-71
2023/08/16 05:16:19;;;;;;;10.30;7.23;;;;;;;24.56;52.54;101294.88;4991367;28;20392;-70
2023/08/16 05:18:45;;;;;;;11.53;8.30;;;;;;;24.49;52.88;101296.91;4991104;28;20373;-70
2023/08/16 05:21:11;;;;;;;10.88;7.75;;;;;;;24.53;53.04;101293.50;4991401;28;20471;-70
2023/08/16 05:23:36;;;;;;;13.67;8.83;;;;;;;24.60;52.73;101296.88;4991176;28;20390;-71
2023/08/16 05:26:02;;;;;;;12.00;8.10;;;;;;;24.52;52.99;101291.81;4991118;28;20472;-70
2023/08/16 05:28:28;;;;;;;11.83;7.80;;;;;;;24.57;53.03;101300.06;4991123;28;20381;-70
2023/08/16 05:30:53;;;;;;;12.40;8.68;;;;;;;24.60;52.77;101301.47;4990873;28;20365;-71
2023/08/16 05:33:19;;;;;;;8.70;7.30;;;;;;;24.52;52.92;101301.84;4992510;28;21084;-71
2023/08/16 05:35:44;;;;;;;10.00;6.90;;;;;;;24.54;52.74;101297.88;5010853;28;21148;-70
2023/08/16 05:38:10;;;;;;;9.95;7.35;;;;;;;24.66;52.75;101305.06;5010340;28;20904;-71
2023/08/16 05:40:35;;;;;;;8.73;6.23;;;;;;;24.60;52.41;101306.91;5010404;28;20790;-70
2023/08/16 05:43:01;;;;;;;9.70;6.67;;;;;;;24.47;52.74;101310.75;5011079;28;20467;-70
2023/08/16 05:45:28;;;;;;;13.68;6.65;;;;;;;24.45;52.96;101296.59;5010331;28;20753;-69
2023/08/16 05:47:54;;;;;;;8.07;6.67;;;;;;;24.66;52.28;101305.88;5010452;28;20388;-70
2023/08/16 05:50:21;;;;;;;7.93;6.30;;;;;;;24.82;51.85;101301.50;5010400;28;20927;-71
2023/08/16 05:52:46;;;;;;;10.00;7.10;;;;;;;24.88;51.61;101302.38;5009444;28;20380;-70
2023/08/16 05:55:12;;;;;;;9.20;7.70;;;;;;;24.91;51.35;101297.28;5010373;28;20380;-71
2023/08/16 05:57:37;;;;;;;14.02;7.43;;;;;;;24.88;51.03;101311.31;5010195;28;20453;-69
2023/08/16 06:00:04;;;;;;;8.87;6.20;;;;;;;24.73;51.00;101303.00;5009972;28;20404;-69
2023/08/16 06:02:29;;;;;;;12.73;7.00;;;;;;;24.80;51.20;101307.16;5010592;28;20376;-71
2023/08/16 06:04:55;;;;;;;8.13;6.55;;;;;;;24.90;51.27;101309.22;5009557;28;20919;-70
2023/08/16 06:07:21;;;;;;;9.83;6.40;;;;;;;25.02;50.77;101309.06;5010171;28;20384;-70
2023/08/16 06:09:46;;;;;;;9.18;6.53;;;;;;;25.13;50.83;101308.13;5010714;28;20368;-70
2023/08/16 06:12:12;;;;;;;7.17;5.97;;;;;;;25.29;50.85;101306.44;5010290;28;20403;-70
2023/08/16 06:14:38;;;;;;;9.63;6.00;;;;;;;25.42;50.32;101310.63;5009958;28;20384;-71
2023/08/16 06:17:04;;;;;;;10.00;6.00;;;;;;;25.58;49.88;101305.38;5010216;28;20380;-71
2023/08/16 06:19:29;;;;;;;9.57;6.17;;;;;;;25.63;49.82;101305.44;5009997;28;20888;-70
2023/08/16 06:21:55;;;;;;;10.10;8.30;;;;;;;25.70;49.36;101296.00;5010231;28;20426;-70
2023/08/16 06:24:20;;;;;;;9.13;6.25;;;;;;;25.82;48.96;101298.56;5010286;28;20416;-71
2023/08/16 06:26:46;;;;;;;9.43;5.90;;;;;;;25.87;48.33;101290.44;5010233;28;20466;-71
2023/08/16 06:29:11;;;;;;;8.43;6.03;;;;;;;25.85;47.76;101294.50;5009861;28;20376;-71
2023/08/16 06:31:37;;;;;;;8.17;6.07;;;;;;;25.95;47.94;101291.91;5010080;28;20812;-71
2023/08/16 06:34:02;;;;;;;8.32;6.10;;;;;;;26.08;47.61;101287.94;5010327;28;20431;-71
2023/08/16 06:36:28;;;;;;;10.97;5.87;;;;;;;26.29;47.50;101292.44;5009948;28;20431;-71
2023/08/16 06:38:53;;;;;;;7.63;5.50;;;;;;;26.48;47.21;101300.97;5010059;28;20488;-71
2023/08/16 06:41:19;;;;;;;6.53;5.63;;;;;;;26.61;46.95;101293.47;5009972;28;20396;-71
2023/08/16 06:43:45;;;;;;;6.32;5.70;;;;;;;26.85;46.58;101302.84;5009801;28;20406;-71
2023/08/16 06:46:11;;;;;;;8.90;6.18;;;;;;;26.94;45.88;101297.72;5009857;28;20387;-70
2023/08/16 06:48:37;;;;;;;7.87;5.90;;;;;;;27.03;46.03;101296.13;5009796;28;21081;-71
2023/08/16 06:51:03;;;;;;;11.07;6.18;;;;;;;27.17;45.54;101295.63;5010015;28;20372;-71
2023/08/16 06:53:28;;;;;;;12.35;5.93;;;;;;;27.20;45.11;101292.38;5012408;28;20479;-71
2023/08/16 06:55:57;;;;;;;7.97;5.57;;;;;;;27.33;44.96;101300.03;5015009;28;20741;-70
2023/08/16 06:58:22;;;;;;;6.40;5.70;;;;;;;27.38;44.88;101300.06;5014421;28;20379;-71
2023/08/16 07:00:49;;;;;;;8.53;7.13;;;;;;;27.39;44.90;101284.56;5009998;28;20396;-70
2023/08/16 07:03:15;;;;;;;7.60;5.22;;;;;;;27.53;44.46;101295.72;5009983;28;20396;-70
2023/08/16 07:05:41;;;;;;;7.90;5.40;;;;;;;27.74;43.46;101286.50;5009828;28;20391;-72
2023/08/16 07:08:07;;;;;;;6.93;5.03;;;;;;;27.94;43.34;101285.72;5010076;28;20376;-71
2023/08/16 07:10:32;;;;;;;8.73;5.18;;;;;;;27.97;43.40;101285.19;5009610;28;20372;-70
2023/08/16 07:12:58;;;;;;;9.80;5.03;;;;;;;28.19;42.67;101292.25;5009502;28;20382;-71
2023/08/16 07:15:23;;;;;;;7.77;5.20;;;;;;;28.11;42.63;101287.34;5009762;28;20384;-71
2023/08/16 07:17:48;;;;;;;5.65;4.80;;;;;;;28.35;41.66;101285.66;5013477;28;20458;-71
2023/08/16 07:20:14;;;;;;;7.90;4.68;;;;;;;28.20;41.20;101291.97;5013390;28;20404;-71
2023/08/16 07:22:39;;;;;;;8.60;5.00;;;;;;;28.47;40.98;101285.38;5013078;28;20761;-70
2023/08/16 07:25:06;;;;;;;6.97;4.40;;;;;;;28.60;40.37;101284.81;5013092;28;20424;-71
2023/08/16 07:27:32;;;;;;;8.48;5.10;;;;;;;28.49;40.14;101268.75;5012903;28;20387;-71
2023/08/16 07:29:58;;;;;;;6.47;4.65;;;;;;;28.51;40.21;101281.00;5012977;28;20397;-70
2023/08/16 07:32:23;;;;;;;7.10;4.85;;;;;;;28.77;39.51;101275.47;5012724;28;20412;-71
2023/08/16 07:34:49;;;;;;;8.23;4.70;;;;;;;28.82;38.58;101275.47;5012683;28;20853;-70
2023/08/16 07:37:14;;;;;;;7.03;4.50;;;;;;;28.93;38.34;101276.25;5012609;28;20388;-71
2023/08/16 07:39:40;;;;;;;8.57;4.20;;;;;;;29.08;37.65;101281.63;5012491;28;20741;-70
2023/08/16 07:42:09;;;;;;;7.70;4.50;;;;;;;29.17;37.78;101274.53;5012890;28;20446;-71
2023/08/16 07:44:34;;;;;;;8.63;4.55;;;;;;;29.11;37.75;101278.31;5012523;28;20377;-71
2023/08/16 07:47:00;;;;;;;6.43;4.40;;;;;;;29.13;37.82;101273.41;5012812;28;20745;-70
2023/08/16 07:49:26;;;;;;;7.22;4.80;;;;;;;29.19;38.12;101263.31;5012431;28;20439;-71
2023/08/16 07:51:55;;;;;;;8.13;4.70;;;;;;;29.17;38.19;101274.53;5012404;28;20377;-71
2023/08/16 07:54:20;;;;;;;7.85;4.63;;;;;;;29.45;38.07;101269.41;5012420;28;20908;-71
2023/08/16 07:56:46;;;;;;;7.20;4.63;;;;;;;29.65;37.63;101276.66;5012127;28;20498;-71
2023/08/16 07:59:11;;;;;;;8.23;5.00;;;;;;;29.65;37.71;101278.56;5012277;28;20376;-70
2023/08/16 08:01:37;;;;;;;7.73;4.90;;;;;;;29.77;37.38;101276.31;5006038;28;20403;-70
2023/08/16 08:04:03;;;;;;;5.50;4.30;;;;;;;29.74;37.67;101274.97;5000978;28;20395;-71
2023/08/16 08:06:28;;;;;;;7.63;4.73;;;;;;;29.82;37.67;101275.44;5000699;28;20410;-71
2023/08/16 08:08:54;;;;;;;5.65;4.70;;;;;;;29.92;37.67;101273.44;5002085;28;20494;-70
2023/08/16 08:11:20;;;;;;;8.40;4.90;;;;;;;29.99;36.81;101275.03;5002174;28;20778;-70
2023/08/16 08:13:45;;;;;;;7.80;4.60;;;;;;;30.08;37.13;101274.13;5002246;28;20404;-70
2023/08/16 08:16:11;;;;;;;8.47;4.53;;;;;;;30.15;36.83;101278.44;5001612;28;21006;-70
2023/08/16 08:18:36;;;;;;;6.80;4.43;;;;;;;29.98;36.70;101282.44;5010111;28;20400;-70
2023/08/16 08:21:02;;;;;;;6.70;4.18;;;;;;;30.06;36.46;101272.78;5010006;28;20481;-70
2023/08/16 08:23:28;;;;;;;6.93;4.40;;;;;;;30.13;36.46;101276.00;5009844;28;20476;-71
2023/08/16 08:25:53;;;;;;;8.32;4.43;;;;;;;30.10;36.38;101271.09;5009404;28;20391;-71
2023/08/16 08:28:20;;;;;;;8.53;4.20;;;;;;;30.20;36.26;101273.75;5009514;28;20853;-71
2023/08/16 08:30:46;;;;;;;6.43;3.90;;;;;;;30.11;36.13;101281.75;5011950;28;20474;-70
2023/08/16 08:33:12;;;;;;;5.68;4.13;;;;;;;30.26;35.91;101290.91;5011838;28;21063;-70
2023/08/16 08:35:38;;;;;;;9.80;4.13;;;;;;;30.19;36.22;101288.50;5011903;28;20395;-72
2023/08/16 08:38:04;;;;;;;7.70;4.03;;;;;;;30.24;36.30;101276.72;5011934;28;20508;-70
2023/08/16 08:40:32;;;;;;;6.75;3.88;;;;;;;30.36;36.00;101279.06;5011615;28;20479;-71
2023/08/16 08:43:03;;;;;;;6.25;4.20;;;;;;;30.35;35.81;101281.00;5011120;28;20514;-71
2023/08/16 08:45:30;;;;;;;7.33;3.70;;;;;;;30.37;35.76;101275.25;5011990;28;20408;-71
2023/08/16 08:47:57;;;;;;;8.13;3.78;;;;;;;30.30;35.75;101275.56;5011761;28;20372;-71
2023/08/16 08:50:23;;;;;;;7.22;3.67;;;;;;;30.35;35.93;101291.13;5011602;28;20377;-71
2023/08/16 08:52:51;;;;;;;6.43;4.07;;;;;;;30.44;35.47;101273.78;5011492;28;20856;-71
2023/08/16 08:55:18;;;;;;;6.07;3.85;;;;;;;30.43;35.52;101274.06;5011328;28;20392;-70
2023/08/16 08:57:50;;;;;;;8.25;4.60;;;;;;;30.48;35.31;101274.03;5011459;28;20458;-70
2023/08/16 09:00:20;;;;;;;5.40;3.88;;;;;;;30.58;35.17;101273.91;5011699;28;20426;-71
2023/08/16 09:02:50;;;;;;;5.97;4.10;;;;;;;30.70;34.98;101276.22;5012002;28;20384;-71
2023/08/16 09:05:18;;;;;;;5.68;3.60;;;;;;;30.69;35.37;101266.41;5011563;28;20384;-71
2023/08/16 09:07:44;;;;;;;7.88;4.00;;;;;;;30.73;35.46;101259.22;5011412;28;20407;-72
2023/08/16 09:10:12;;;;;;;8.63;3.77;;;;;;;30.80;35.05;101267.09;5011178;28;20419;-72
2023/08/16 09:12:37;;;;;;;6.88;3.70;;;;;;;30.88;35.25;101266.41;5011199;28;20758;-71
2023/08/16 09:15:04;;;;;;;5.93;3.90;;;;;;;30.98;35.43;101252.63;5011134;28;20487;-71
2023/08/16 09:17:29;;;;;;;6.75;4.25;;;;;;;31.16;34.79;101259.22;5011166;28;20876;-71
2023/08/16 09:19:55;;;;;;;6.05;3.90;;;;;;;31.24;34.91;101265.94;5010930;28;20408;-71
2023/08/16 09:22:20;;;;;;;4.10;3.53;;;;;;;31.18;34.43;101256.19;5011306;28;20403;-71
2023/08/16 09:24:46;;;;;;;7.67;4.17;;;;;;;31.19;34.58;101263.31;5010831;28;20861;-71
2023/08/16 09:27:12;;;;;;;5.73;3.77;;;;;;;31.25;34.23;101256.63;5010982;28;20707;-72
2023/08/16 09:29:41;;;;;;;6.75;3.90;;;;;;;31.28;34.09;101258.78;5011072;28;20388;-72
2023/08/16 09:32:08;;;;;;;4.77;3.53;;;;;;;31.27;33.83;101259.09;5010671;28;20813;-72
2023/08/16 09:34:34;;;;;;;7.35;3.53;;;;;;;31.33;34.24;101255.97;5010916;28;20491;-71
2023/08/16 09:37:02;;;;;;;5.93;3.77;;;;;;;31.42;33.79;101248.72;5011191;28;20392;-71
2023/08/16 09:39:28;;;;;;;5.75;4.10;;;;;;;31.49;34.05;101256.56;5009435;28;20392;-71
2023/08/16 09:41:54;;;;;;;6.05;3.88;;;;;;;31.38;33.83;101242.19;5010724;28;20875;-71
2023/08/16 09:44:19;;;;;;;5.07;3.70;;;;;;;31.38;34.36;101255.06;5011899;28;20372;-72
2023/08/16 09:46:46;;;;;;;5.97;3.90;;;;;;;31.22;34.36;101249.84;5011792;28;20597;-71
2023/08/16 09:49:12;;;;;;;7.00;3.80;;;;;;;31.23;34.21;101247.91;5011007;28;20391;-71
2023/08/16 09:51:40;;;;;;;4.38;3.75;;;;;;;31.19;34.07;101255.09;5010605;28;20380;-71
2023/08/16 09:54:12;;;;;;;6.82;3.53;;;;;;;31.30;34.33;101255.75;5010466;28;20791;-71
2023/08/16 09:56:38;;;;;;;5.40;3.90;;;;;;;31.25;34.81;101260.19;5011154;28;20395;-72
2023/08/16 09:59:06;;;;;;;5.10;3.60;;;;;;;31.30;34.89;101248.34;5010786;28;20458;-72
2023/08/16 10:01:33;;;;;;;8.68;3.90;;;;;;;31.67;35.43;101243.94;5010601;28;20422;-72
2023/08/16 10:03:59;;;;;;;6.57;3.85;;;;;;;31.81;35.14;101250.28;5010876;28;20400;-72
2023/08/16 10:06:26;;;;;;;5.53;3.63;;;;;;;31.77;34.61;101257.47;5011037;28;20387;-71
2023/08/16 10:08:52;;;;;;;5.50;3.50;;;;;;;31.98;34.23;101255.22;5010514;28;20380;-72
2023/08/16 10:11:18;;;;;;;4.60;3.60;;;;;;;31.97;33.60;101250.03;5010847;28;20455;-72
2023/08/16 10:13:45;;;;;;;6.47;3.95;;;;;;;31.95;33.65;101246.78;5010629;28;20384;-71
2023/08/16 10:16:14;;;;;;;7.05;3.70;;;;;;;31.93;33.67;101244.31;5010395;28;20376;-70
2023/08/16 10:18:45;;;;;;;3.80;3.40;;;;;;;32.01;33.78;101249.09;5009480;28;20606;-71
2023/08/16 10:21:15;;;;;;;5.43;3.40;;;;;;;32.08;33.18;101247.94;5009912;28;20454;-71
2023/08/16 10:23:42;;;;;;;4.68;3.53;;;;;;;32.14;32.63;101247.53;5010893;28;20380;-72
2023/08/16 10:26:14;;;;;;;6.90;3.80;;;;;;;32.23;32.47;101255.06;5010507;28;20402;-72
2023/08/16 10:28:46;;;;;;;6.30;3.58;;;;;;;32.35;32.59;101247.13;5010593;28;20372;-71
2023/08/16 10:31:14;;;;;;;6.53;3.70;;;;;;;32.31;32.18;101246.94;5010369;28;20400;-71
2023/08/16 10:33:44;;;;;;;4.65;3.45;;;;;;;32.25;32.24;101239.94;5010354;28;20400;-75
2023/08/16 10:36:11;;;;;;;8.05;4.00;;;;;;;32.34;32.71;101248.25;5010260;28;20408;-71
2023/08/16 10:38:37;;;;;;;7.50;3.57;;;;;;;32.45;32.00;101229.66;5010235;28;20388;-71
2023/08/16 10:41:13;;;;;;;6.25;3.65;;;;;;;32.54;32.26;101227.84;5010060;28;20497;-71
2023/08/16 10:43:44;;;;;;;4.38;3.90;;;;;;;32.49;32.27;101219.72;5010170;28;20416;-71
2023/08/16 10:46:09;;;;;;;4.78;4.28;;;;;;;32.52;32.47;101221.81;5010201;28;20391;-70
2023/08/16 10:48:35;;;;;;;11.93;10.63;;;;;;;32.46;33.01;101217.56;5010307;28;20384;-71
2023/08/16 10:51:07;;;;;;;5.22;3.35;;;;;;;32.42;32.22;101227.53;5010862;28;20461;-72
2023/08/16 10:53:34;;;;;;;5.80;3.28;;;;;;;32.55;32.57;101229.44;5014003;28;20372;-71
2023/08/16 10:56:07;;;;;;;3.70;2.80;;;;;;;32.58;32.33;101224.19;5013798;28;20391;-71
2023/08/16 10:58:52;;;;;;;5.70;3.28;;;;;;;32.61;32.55;101225.53;5013749;28;20387;-71
2023/08/16 11:01:19;;;;;;;5.97;3.30;;;;;;;32.60;32.58;101223.88;5013605;28;20439;-72
2023/08/16 11:03:46;;;;;;;5.05;3.25;;;;;;;32.51;32.38;101223.75;5014005;28;20398;-73
2023/08/16 11:06:13;;;;;;;5.80;3.40;;;;;;;32.61;32.63;101224.69;5013330;28;20386;-71
2023/08/16 11:08:43;;;;;;;4.72;3.67;;;;;;;32.61;32.99;101225.53;5013689;28;20459;-71
2023/08/16 11:11:10;;;;;;;5.85;3.45;;;;;;;32.48;33.51;101218.88;5013440;28;20372;-71
2023/08/16 11:13:36;;;;;;;6.45;3.65;;;;;;;32.45;33.09;101216.75;5012330;28;20384;-72
2023/08/16 11:16:01;;;;;;;7.03;3.60;;;;;;;32.58;32.85;101217.88;5013368;28;20372;-71
2023/08/16 11:18:32;;;;;;;4.60;3.50;;;;;;;32.57;33.10;101216.22;5013377;28;20415;-71
2023/08/16 11:20:59;;;;;;;4.72;3.40;;;;;;;32.50;33.04;101218.56;5012888;28;20408;-72